sensor_id;sensor_type;location;lat;lon;timestamp;P1;durP1;ratioP1;P2;durP2;ratioP2
45848;SDS011;31567;54.600;9.842;2022-08-19T00:02:54;16.10;;;10.98;;
45848;SDS011;31567;54.600;9.842;2022-08-19T00:06:35;18.05;;;11.60;;
45848;SDS011;31567;54.600;9.842;2022-08-19T00:10:16;19.20;;;12.15;;
45848;SDS011;31567;54.600;9.842;2022-08-19T00:13:57;17.52;;;11.60;;
45848;SDS011;31567;54.600;9.842;2022-08-19T00:17:37;17.30;;;11.70;;
45848;SDS011;31567;54.600;9.842;2022-08-19T00:21:18;19.90;;;10.55;;
45848;SDS011;31567;54.600;9.842;2022-08-19T00:24:57;15.57;;;9.95;;
45848;SDS011;31567;54.600;9.842;2022-08-19T00:28:37;20.00;;;11.38;;
45848;SDS011;31567;54.600;9.842;2022-08-19T00:32:17;21.52;;;10.45;;
45848;SDS011;31567;54.600;9.842;2022-08-19T00:35:56;17.40;;;10.70;;
45848;SDS011;31567;54.600;9.842;2022-08-19T00:39:36;21.50;;;11.18;;
45848;SDS011;31567;54.600;9.842;2022-08-19T00:43:18;15.30;;;10.32;;
45848;SDS011;31567;54.600;9.842;2022-08-19T00:46:59;17.13;;;10.95;;
45848;SDS011;31567;54.600;9.842;2022-08-19T00:50:40;16.55;;;11.15;;
45848;SDS011;31567;54.600;9.842;2022-08-19T00:54:22;19.50;;;11.13;;
45848;SDS011;31567;54.600;9.842;2022-08-19T00:58:03;22.67;;;10.65;;
45848;SDS011;31567;54.600;9.842;2022-08-19T01:01:46;20.40;;;9.55;;
45848;SDS011;31567;54.600;9.842;2022-08-19T01:05:27;21.23;;;11.38;;
45848;SDS011;31567;54.600;9.842;2022-08-19T01:09:08;15.13;;;10.48;;
45848;SDS011;31567;54.600;9.842;2022-08-19T01:12:48;17.63;;;10.60;;
45848;SDS011;31567;54.600;9.842;2022-08-19T01:16:28;18.55;;;12.05;;
45848;SDS011;31567;54.600;9.842;2022-08-19T01:20:11;16.40;;;10.88;;
45848;SDS011;31567;54.600;9.842;2022-08-19T01:23:53;20.25;;;10.65;;
45848;SDS011;31567;54.600;9.842;2022-08-19T01:27:40;21.52;;;11.15;;
45848;SDS011;31567;54.600;9.842;2022-08-19T01:31:22;19.02;;;11.52;;
45848;SDS011;31567;54.600;9.842;2022-08-19T01:35:04;24.23;;;11.75;;
45848;SDS011;31567;54.600;9.842;2022-08-19T01:38:44;20.08;;;11.50;;
45848;SDS011;31567;54.600;9.842;2022-08-19T01:42:25;22.63;;;12.63;;
45848;SDS011;31567;54.600;9.842;2022-08-19T01:46:04;27.42;;;13.35;;
45848;SDS011;31567;54.600;9.842;2022-08-19T01:49:44;22.10;;;12.55;;
45848;SDS011;31567;54.600;9.842;2022-08-19T01:53:23;19.42;;;11.45;;
45848;SDS011;31567;54.600;9.842;2022-08-19T01:57:05;16.55;;;11.32;;
45848;SDS011;31567;54.600;9.842;2022-08-19T02:00:47;21.60;;;11.50;;
45848;SDS011;31567;54.600;9.842;2022-08-19T02:04:27;20.00;;;12.60;;
45848;SDS011;31567;54.600;9.842;2022-08-19T02:08:07;25.83;;;12.30;;
45848;SDS011;31567;54.600;9.842;2022-08-19T02:11:47;22.67;;;12.13;;
45848;SDS011;31567;54.600;9.842;2022-08-19T02:15:27;20.85;;;12.32;;
45848;SDS011;31567;54.600;9.842;2022-08-19T02:19:07;18.60;;;12.77;;
45848;SDS011;31567;54.600;9.842;2022-08-19T02:22:46;22.73;;;12.73;;
45848;SDS011;31567;54.600;9.842;2022-08-19T02:26:26;21.10;;;12.30;;
45848;SDS011;31567;54.600;9.842;2022-08-19T02:30:06;22.85;;;12.55;;
45848;SDS011;31567;54.600;9.842;2022-08-19T02:33:48;26.92;;;13.55;;
45848;SDS011;31567;54.600;9.842;2022-08-19T02:37:29;20.15;;;13.18;;
45848;SDS011;31567;54.600;9.842;2022-08-19T02:41:28;22.38;;;14.35;;
45848;SDS011;31567;54.600;9.842;2022-08-19T02:45:10;19.90;;;12.40;;
45848;SDS011;31567;54.600;9.842;2022-08-19T02:48:52;20.45;;;12.63;;
45848;SDS011;31567;54.600;9.842;2022-08-19T02:52:33;20.77;;;12.88;;
45848;SDS011;31567;54.600;9.842;2022-08-19T02:56:13;23.52;;;12.90;;
45848;SDS011;31567;54.600;9.842;2022-08-19T02:59:53;22.83;;;14.30;;
45848;SDS011;31567;54.600;9.842;2022-08-19T03:03:33;27.75;;;14.65;;
45848;SDS011;31567;54.600;9.842;2022-08-19T03:07:13;29.67;;;15.77;;
45848;SDS011;31567;54.600;9.842;2022-08-19T03:10:54;22.30;;;13.93;;
45848;SDS011;31567;54.600;9.842;2022-08-19T03:14:34;24.42;;;15.10;;
45848;SDS011;31567;54.600;9.842;2022-08-19T03:18:14;27.88;;;14.48;;
45848;SDS011;31567;54.600;9.842;2022-08-19T03:21:55;23.15;;;14.70;;
45848;SDS011;31567;54.600;9.842;2022-08-19T03:25:38;25.17;;;13.35;;
45848;SDS011;31567;54.600;9.842;2022-08-19T03:29:19;22.20;;;14.77;;
45848;SDS011;31567;54.600;9.842;2022-08-19T03:32:59;27.75;;;14.85;;
45848;SDS011;31567;54.600;9.842;2022-08-19T03:36:39;22.20;;;14.55;;
45848;SDS011;31567;54.600;9.842;2022-08-19T03:40:19;29.67;;;15.45;;
45848;SDS011;31567;54.600;9.842;2022-08-19T03:43:58;27.67;;;16.35;;
45848;SDS011;31567;54.600;9.842;2022-08-19T03:47:38;26.45;;;15.15;;
45848;SDS011;31567;54.600;9.842;2022-08-19T03:51:24;24.75;;;14.50;;
45848;SDS011;31567;54.600;9.842;2022-08-19T03:55:09;29.00;;;16.00;;
45848;SDS011;31567;54.600;9.842;2022-08-19T03:58:49;28.38;;;16.73;;
45848;SDS011;31567;54.600;9.842;2022-08-19T04:02:28;28.05;;;17.33;;
45848;SDS011;31567;54.600;9.842;2022-08-19T04:06:18;26.98;;;17.60;;
45848;SDS011;31567;54.600;9.842;2022-08-19T04:10:00;29.10;;;17.55;;
45848;SDS011;31567;54.600;9.842;2022-08-19T04:13:40;28.52;;;16.98;;
45848;SDS011;31567;54.600;9.842;2022-08-19T04:17:21;26.98;;;17.13;;
45848;SDS011;31567;54.600;9.842;2022-08-19T04:21:01;31.13;;;18.00;;
45848;SDS011;31567;54.600;9.842;2022-08-19T04:24:40;30.92;;;18.63;;
45848;SDS011;31567;54.600;9.842;2022-08-19T04:28:20;28.05;;;18.17;;
45848;SDS011;31567;54.600;9.842;2022-08-19T04:32:00;29.48;;;18.50;;
45848;SDS011;31567;54.600;9.842;2022-08-19T04:35:41;27.65;;;17.20;;
45848;SDS011;31567;54.600;9.842;2022-08-19T04:39:24;29.27;;;18.30;;
45848;SDS011;31567;54.600;9.842;2022-08-19T04:43:27;28.08;;;18.15;;
45848;SDS011;31567;54.600;9.842;2022-08-19T04:47:06;29.83;;;18.80;;
45848;SDS011;31567;54.600;9.842;2022-08-19T04:50:46;26.58;;;16.98;;
45848;SDS011;31567;54.600;9.842;2022-08-19T04:54:27;32.15;;;16.75;;
45848;SDS011;31567;54.600;9.842;2022-08-19T04:58:06;27.48;;;18.33;;
45848;SDS011;31567;54.600;9.842;2022-08-19T05:01:47;31.20;;;19.08;;
45848;SDS011;31567;54.600;9.842;2022-08-19T05:05:28;28.42;;;19.38;;
45848;SDS011;31567;54.600;9.842;2022-08-19T05:09:10;27.05;;;18.75;;
45848;SDS011;31567;54.600;9.842;2022-08-19T05:12:49;26.25;;;18.83;;
45848;SDS011;31567;54.600;9.842;2022-08-19T05:16:29;24.75;;;18.80;;
45848;SDS011;31567;54.600;9.842;2022-08-19T05:20:08;31.20;;;19.88;;
45848;SDS011;31567;54.600;9.842;2022-08-19T05:24:07;24.90;;;18.67;;
45848;SDS011;31567;54.600;9.842;2022-08-19T05:27:48;25.98;;;19.23;;
45848;SDS011;31567;54.600;9.842;2022-08-19T05:31:27;23.25;;;17.73;;
45848;SDS011;31567;54.600;9.842;2022-08-19T05:35:07;25.30;;;19.00;;
45848;SDS011;31567;54.600;9.842;2022-08-19T05:38:47;23.98;;;18.52;;
45848;SDS011;31567;54.600;9.842;2022-08-19T05:42:26;29.02;;;20.35;;
45848;SDS011;31567;54.600;9.842;2022-08-19T05:46:06;30.70;;;19.75;;
45848;SDS011;31567;54.600;9.842;2022-08-19T05:49:47;26.58;;;18.88;;
45848;SDS011;31567;54.600;9.842;2022-08-19T05:53:28;23.00;;;19.70;;
45848;SDS011;31567;54.600;9.842;2022-08-19T05:57:08;29.40;;;20.90;;
45848;SDS011;31567;54.600;9.842;2022-08-19T06:00:48;28.80;;;20.40;;
45848;SDS011;31567;54.600;9.842;2022-08-19T06:04:28;28.95;;;20.42;;
45848;SDS011;31567;54.600;9.842;2022-08-19T06:08:07;27.42;;;20.80;;
45848;SDS011;31567;54.600;9.842;2022-08-19T06:11:49;27.42;;;21.25;;
45848;SDS011;31567;54.600;9.842;2022-08-19T06:15:32;32.60;;;22.30;;
45848;SDS011;31567;54.600;9.842;2022-08-19T06:19:15;29.63;;;22.00;;
45848;SDS011;31567;54.600;9.842;2022-08-19T06:22:55;32.83;;;23.55;;
45848;SDS011;31567;54.600;9.842;2022-08-19T06:26:36;31.45;;;24.27;;
45848;SDS011;31567;54.600;9.842;2022-08-19T06:30:17;37.88;;;25.77;;
45848;SDS011;31567;54.600;9.842;2022-08-19T06:33:56;38.47;;;26.48;;
45848;SDS011;31567;54.600;9.842;2022-08-19T06:37:36;37.15;;;25.25;;
45848;SDS011;31567;54.600;9.842;2022-08-19T06:41:16;34.72;;;24.38;;
45848;SDS011;31567;54.600;9.842;2022-08-19T06:44:55;32.90;;;23.10;;
45848;SDS011;31567;54.600;9.842;2022-08-19T06:48:37;35.72;;;23.80;;
45848;SDS011;31567;54.600;9.842;2022-08-19T06:52:16;34.10;;;23.40;;
45848;SDS011;31567;54.600;9.842;2022-08-19T06:55:56;31.73;;;22.05;;
45848;SDS011;31567;54.600;9.842;2022-08-19T06:59:39;39.78;;;23.88;;
45848;SDS011;31567;54.600;9.842;2022-08-19T07:03:18;34.72;;;22.50;;
45848;SDS011;31567;54.600;9.842;2022-08-19T07:07:02;34.33;;;22.15;;
45848;SDS011;31567;54.600;9.842;2022-08-19T07:10:51;36.33;;;24.30;;
45848;SDS011;31567;54.600;9.842;2022-08-19T07:14:30;46.00;;;25.20;;
45848;SDS011;31567;54.600;9.842;2022-08-19T07:18:10;37.53;;;24.98;;
45848;SDS011;31567;54.600;9.842;2022-08-19T07:21:50;41.85;;;24.88;;
45848;SDS011;31567;54.600;9.842;2022-08-19T07:25:32;38.80;;;25.13;;
45848;SDS011;31567;54.600;9.842;2022-08-19T07:29:12;37.58;;;25.65;;
45848;SDS011;31567;54.600;9.842;2022-08-19T07:32:52;38.00;;;23.65;;
45848;SDS011;31567;54.600;9.842;2022-08-19T07:36:32;39.83;;;26.42;;
45848;SDS011;31567;54.600;9.842;2022-08-19T07:40:13;38.28;;;25.45;;
45848;SDS011;31567;54.600;9.842;2022-08-19T07:43:53;35.83;;;22.95;;
45848;SDS011;31567;54.600;9.842;2022-08-19T07:47:32;37.17;;;24.20;;
45848;SDS011;31567;54.600;9.842;2022-08-19T07:51:12;38.42;;;24.30;;
45848;SDS011;31567;54.600;9.842;2022-08-19T07:54:54;37.33;;;23.65;;
45848;SDS011;31567;54.600;9.842;2022-08-19T07:58:36;35.50;;;24.30;;
45848;SDS011;31567;54.600;9.842;2022-08-19T08:02:17;39.20;;;24.35;;
45848;SDS011;31567;54.600;9.842;2022-08-19T08:05:57;35.65;;;24.48;;
45848;SDS011;31567;54.600;9.842;2022-08-19T08:09:55;34.08;;;24.40;;
45848;SDS011;31567;54.600;9.842;2022-08-19T08:13:35;41.90;;;25.52;;
45848;SDS011;31567;54.600;9.842;2022-08-19T08:17:15;36.30;;;25.20;;
45848;SDS011;31567;54.600;9.842;2022-08-19T08:20:58;44.58;;;26.88;;
45848;SDS011;31567;54.600;9.842;2022-08-19T08:24:37;36.00;;;25.45;;
45848;SDS011;31567;54.600;9.842;2022-08-19T08:28:17;42.20;;;26.02;;
45848;SDS011;31567;54.600;9.842;2022-08-19T08:31:57;47.13;;;27.95;;
45848;SDS011;31567;54.600;9.842;2022-08-19T08:35:38;44.65;;;28.20;;
45848;SDS011;31567;54.600;9.842;2022-08-19T08:39:20;48.15;;;28.08;;
45848;SDS011;31567;54.600;9.842;2022-08-19T08:43:03;39.75;;;27.27;;
45848;SDS011;31567;54.600;9.842;2022-08-19T08:46:49;47.17;;;28.35;;
45848;SDS011;31567;54.600;9.842;2022-08-19T08:50:38;51.58;;;30.00;;
45848;SDS011;31567;54.600;9.842;2022-08-19T08:54:22;52.58;;;29.10;;
45848;SDS011;31567;54.600;9.842;2022-08-19T08:58:09;47.58;;;29.35;;
45848;SDS011;31567;54.600;9.842;2022-08-19T09:01:54;49.58;;;30.45;;
45848;SDS011;31567;54.600;9.842;2022-08-19T09:06:11;46.22;;;28.80;;
45848;SDS011;31567;54.600;9.842;2022-08-19T09:09:45;39.00;;;27.42;;
45848;SDS011;31567;54.600;9.842;2022-08-19T09:17:35;40.15;;;24.65;;
45848;SDS011;31567;54.600;9.842;2022-08-19T09:21:17;42.75;;;24.90;;
45848;SDS011;31567;54.600;9.842;2022-08-19T09:24:57;39.63;;;25.25;;
45848;SDS011;31567;54.600;9.842;2022-08-19T09:28:37;46.15;;;28.27;;
45848;SDS011;31567;54.600;9.842;2022-08-19T09:32:16;38.50;;;25.63;;
45848;SDS011;31567;54.600;9.842;2022-08-19T09:36:07;42.67;;;25.52;;
45848;SDS011;31567;54.600;9.842;2022-08-19T09:39:48;41.75;;;25.92;;
45848;SDS011;31567;54.600;9.842;2022-08-19T09:43:28;48.67;;;28.75;;
45848;SDS011;31567;54.600;9.842;2022-08-19T09:47:08;48.38;;;28.17;;
45848;SDS011;31567;54.600;9.842;2022-08-19T09:50:49;47.30;;;28.52;;
45848;SDS011;31567;54.600;9.842;2022-08-19T09:54:30;50.13;;;28.58;;
45848;SDS011;31567;54.600;9.842;2022-08-19T09:58:09;48.65;;;28.20;;
45848;SDS011;31567;54.600;9.842;2022-08-19T10:01:49;49.80;;;30.23;;
45848;SDS011;31567;54.600;9.842;2022-08-19T10:05:30;46.65;;;27.77;;
45848;SDS011;31567;54.600;9.842;2022-08-19T10:09:27;50.10;;;29.92;;
45848;SDS011;31567;54.600;9.842;2022-08-19T10:13:07;48.33;;;29.38;;
45848;SDS011;31567;54.600;9.842;2022-08-19T10:16:47;52.13;;;28.17;;
45848;SDS011;31567;54.600;9.842;2022-08-19T10:20:26;53.05;;;28.88;;
45848;SDS011;31567;54.600;9.842;2022-08-19T10:24:06;52.95;;;28.48;;
45848;SDS011;31567;54.600;9.842;2022-08-19T10:27:45;42.33;;;26.20;;
45848;SDS011;31567;54.600;9.842;2022-08-19T10:31:26;40.25;;;26.73;;
45848;SDS011;31567;54.600;9.842;2022-08-19T10:35:07;45.35;;;28.27;;
45848;SDS011;31567;54.600;9.842;2022-08-19T10:38:49;45.03;;;27.02;;
45848;SDS011;31567;54.600;9.842;2022-08-19T10:42:32;43.13;;;27.70;;
45848;SDS011;31567;54.600;9.842;2022-08-19T10:46:14;42.45;;;27.67;;
45848;SDS011;31567;54.600;9.842;2022-08-19T10:49:54;41.60;;;27.60;;
45848;SDS011;31567;54.600;9.842;2022-08-19T10:53:52;40.45;;;28.02;;
45848;SDS011;31567;54.600;9.842;2022-08-19T10:57:32;40.10;;;27.30;;
45848;SDS011;31567;54.600;9.842;2022-08-19T11:01:12;45.25;;;28.25;;
45848;SDS011;31567;54.600;9.842;2022-08-19T11:04:52;37.90;;;25.33;;
45848;SDS011;31567;54.600;9.842;2022-08-19T11:08:32;35.70;;;25.33;;
45848;SDS011;31567;54.600;9.842;2022-08-19T11:12:12;37.70;;;25.88;;
45848;SDS011;31567;54.600;9.842;2022-08-19T11:15:59;35.55;;;24.98;;
45848;SDS011;31567;54.600;9.842;2022-08-19T11:19:40;34.53;;;25.23;;
45848;SDS011;31567;54.600;9.842;2022-08-19T11:23:21;33.42;;;25.65;;
45848;SDS011;31567;54.600;9.842;2022-08-19T11:27:05;36.67;;;26.70;;
45848;SDS011;31567;54.600;9.842;2022-08-19T11:30:47;34.15;;;25.58;;
45848;SDS011;31567;54.600;9.842;2022-08-19T11:34:27;34.42;;;24.95;;
45848;SDS011;31567;54.600;9.842;2022-08-19T11:38:07;28.48;;;23.15;;
45848;SDS011;31567;54.600;9.842;2022-08-19T11:41:46;32.67;;;24.25;;
45848;SDS011;31567;54.600;9.842;2022-08-19T11:45:27;32.70;;;24.00;;
45848;SDS011;31567;54.600;9.842;2022-08-19T11:49:08;28.92;;;23.38;;
45848;SDS011;31567;54.600;9.842;2022-08-19T11:52:48;27.98;;;23.13;;
45848;SDS011;31567;54.600;9.842;2022-08-19T11:56:28;29.10;;;23.58;;
45848;SDS011;31567;54.600;9.842;2022-08-19T12:00:08;31.15;;;24.13;;
45848;SDS011;31567;54.600;9.842;2022-08-19T12:03:51;28.45;;;23.10;;
45848;SDS011;31567;54.600;9.842;2022-08-19T12:07:32;25.70;;;22.20;;
45848;SDS011;31567;54.600;9.842;2022-08-19T12:11:12;26.25;;;22.05;;
45848;SDS011;31567;54.600;9.842;2022-08-19T12:14:53;24.92;;;22.05;;
45848;SDS011;31567;54.600;9.842;2022-08-19T12:18:35;24.00;;;21.50;;
45848;SDS011;31567;54.600;9.842;2022-08-19T12:22:15;22.20;;;19.88;;
45848;SDS011;31567;54.600;9.842;2022-08-19T12:25:54;24.30;;;21.70;;
45848;SDS011;31567;54.600;9.842;2022-08-19T12:29:35;24.15;;;20.60;;
45848;SDS011;31567;54.600;9.842;2022-08-19T12:33:15;23.80;;;21.33;;
45848;SDS011;31567;54.600;9.842;2022-08-19T12:36:56;24.60;;;21.02;;
45848;SDS011;31567;54.600;9.842;2022-08-19T12:40:40;22.60;;;20.08;;
45848;SDS011;31567;54.600;9.842;2022-08-19T12:44:20;22.70;;;20.40;;
45848;SDS011;31567;54.600;9.842;2022-08-19T12:48:00;22.60;;;19.27;;
45848;SDS011;31567;54.600;9.842;2022-08-19T12:51:40;22.58;;;20.27;;
45848;SDS011;31567;54.600;9.842;2022-08-19T12:55:21;19.40;;;17.38;;
45848;SDS011;31567;54.600;9.842;2022-08-19T12:59:01;21.42;;;19.17;;
45848;SDS011;31567;54.600;9.842;2022-08-19T13:02:43;21.83;;;19.35;;
45848;SDS011;31567;54.600;9.842;2022-08-19T13:06:24;20.73;;;17.80;;
45848;SDS011;31567;54.600;9.842;2022-08-19T13:10:05;22.95;;;19.05;;
45848;SDS011;31567;54.600;9.842;2022-08-19T13:13:46;23.92;;;20.08;;
45848;SDS011;31567;54.600;9.842;2022-08-19T13:17:29;21.60;;;18.52;;
45848;SDS011;31567;54.600;9.842;2022-08-19T13:21:09;20.88;;;18.77;;
45848;SDS011;31567;54.600;9.842;2022-08-19T13:24:51;20.90;;;18.80;;
45848;SDS011;31567;54.600;9.842;2022-08-19T13:28:31;22.27;;;19.98;;
45848;SDS011;31567;54.600;9.842;2022-08-19T13:32:30;20.63;;;18.55;;
45848;SDS011;31567;54.600;9.842;2022-08-19T13:36:28;19.70;;;17.75;;
45848;SDS011;31567;54.600;9.842;2022-08-19T13:40:09;19.70;;;17.70;;
45848;SDS011;31567;54.600;9.842;2022-08-19T13:43:51;20.70;;;18.60;;
45848;SDS011;31567;54.600;9.842;2022-08-19T13:47:32;18.63;;;16.80;;
45848;SDS011;31567;54.600;9.842;2022-08-19T13:51:13;18.75;;;16.95;;
45848;SDS011;31567;54.600;9.842;2022-08-19T13:54:55;19.23;;;16.65;;
45848;SDS011;31567;54.600;9.842;2022-08-19T13:58:36;17.23;;;15.52;;
45848;SDS011;31567;54.600;9.842;2022-08-19T14:02:16;18.40;;;16.60;;
45848;SDS011;31567;54.600;9.842;2022-08-19T14:05:55;17.42;;;15.68;;
45848;SDS011;31567;54.600;9.842;2022-08-19T14:09:35;18.80;;;16.80;;
45848;SDS011;31567;54.600;9.842;2022-08-19T14:13:16;18.73;;;16.77;;
45848;SDS011;31567;54.600;9.842;2022-08-19T14:16:58;18.25;;;16.33;;
45848;SDS011;31567;54.600;9.842;2022-08-19T14:20:38;19.35;;;17.30;;
45848;SDS011;31567;54.600;9.842;2022-08-19T14:24:18;20.80;;;18.73;;
45848;SDS011;31567;54.600;9.842;2022-08-19T14:27:58;17.33;;;15.63;;
45848;SDS011;31567;54.600;9.842;2022-08-19T14:31:37;18.33;;;16.58;;
45848;SDS011;31567;54.600;9.842;2022-08-19T14:35:20;19.65;;;17.88;;
45848;SDS011;31567;54.600;9.842;2022-08-19T14:39:00;18.02;;;16.13;;
45848;SDS011;31567;54.600;9.842;2022-08-19T14:42:41;18.25;;;16.42;;
45848;SDS011;31567;54.600;9.842;2022-08-19T14:46:21;18.55;;;16.67;;
45848;SDS011;31567;54.600;9.842;2022-08-19T14:50:05;16.05;;;14.50;;
45848;SDS011;31567;54.600;9.842;2022-08-19T14:53:46;14.88;;;13.38;;
45848;SDS011;31567;54.600;9.842;2022-08-19T14:57:28;16.15;;;14.68;;
45848;SDS011;31567;54.600;9.842;2022-08-19T15:01:08;16.50;;;14.90;;
45848;SDS011;31567;54.600;9.842;2022-08-19T15:04:49;16.45;;;14.80;;
45848;SDS011;31567;54.600;9.842;2022-08-19T15:08:29;19.55;;;15.10;;
45848;SDS011;31567;54.600;9.842;2022-08-19T15:12:10;16.75;;;15.15;;
45848;SDS011;31567;54.600;9.842;2022-08-19T15:15:50;16.58;;;15.02;;
45848;SDS011;31567;54.600;9.842;2022-08-19T15:19:30;18.13;;;16.40;;
45848;SDS011;31567;54.600;9.842;2022-08-19T15:23:11;18.73;;;16.58;;
45848;SDS011;31567;54.600;9.842;2022-08-19T15:26:52;21.65;;;16.42;;
45848;SDS011;31567;54.600;9.842;2022-08-19T15:30:34;16.75;;;15.15;;
45848;SDS011;31567;54.600;9.842;2022-08-19T15:34:14;189.55;;;26.08;;
45848;SDS011;31567;54.600;9.842;2022-08-19T15:37:53;18.38;;;15.13;;
45848;SDS011;31567;54.600;9.842;2022-08-19T15:41:34;16.15;;;14.63;;
45848;SDS011;31567;54.600;9.842;2022-08-19T15:45:18;18.20;;;16.48;;
45848;SDS011;31567;54.600;9.842;2022-08-19T15:48:59;17.15;;;15.48;;
45848;SDS011;31567;54.600;9.842;2022-08-19T15:52:49;16.98;;;15.48;;
45848;SDS011;31567;54.600;9.842;2022-08-19T15:56:31;17.98;;;16.33;;
45848;SDS011;31567;54.600;9.842;2022-08-19T16:00:29;16.45;;;15.05;;
45848;SDS011;31567;54.600;9.842;2022-08-19T16:04:27;16.38;;;12.60;;
45848;SDS011;31567;54.600;9.842;2022-08-19T16:08:25;14.18;;;12.68;;
45848;SDS011;31567;54.600;9.842;2022-08-19T16:12:05;15.80;;;13.57;;
45848;SDS011;31567;54.600;9.842;2022-08-19T16:15:46;14.93;;;13.48;;
45848;SDS011;31567;54.600;9.842;2022-08-19T16:19:27;15.07;;;13.70;;
45848;SDS011;31567;54.600;9.842;2022-08-19T16:23:07;15.02;;;13.63;;
45848;SDS011;31567;54.600;9.842;2022-08-19T16:26:47;14.32;;;12.82;;
45848;SDS011;31567;54.600;9.842;2022-08-19T16:30:27;14.18;;;12.90;;
45848;SDS011;31567;54.600;9.842;2022-08-19T16:34:06;13.73;;;12.32;;
45848;SDS011;31567;54.600;9.842;2022-08-19T16:37:46;12.75;;;11.55;;
45848;SDS011;31567;54.600;9.842;2022-08-19T16:41:26;13.55;;;12.25;;
45848;SDS011;31567;54.600;9.842;2022-08-19T16:45:06;14.20;;;12.70;;
45848;SDS011;31567;54.600;9.842;2022-08-19T16:48:47;13.85;;;12.45;;
45848;SDS011;31567;54.600;9.842;2022-08-19T16:52:27;14.70;;;12.10;;
45848;SDS011;31567;54.600;9.842;2022-08-19T16:56:07;13.85;;;12.55;;
45848;SDS011;31567;54.600;9.842;2022-08-19T16:59:47;15.23;;;13.75;;
45848;SDS011;31567;54.600;9.842;2022-08-19T17:03:29;13.80;;;12.60;;
45848;SDS011;31567;54.600;9.842;2022-08-19T17:07:10;13.50;;;12.35;;
45848;SDS011;31567;54.600;9.842;2022-08-19T17:10:49;13.85;;;12.45;;
45848;SDS011;31567;54.600;9.842;2022-08-19T17:14:30;13.75;;;12.45;;
45848;SDS011;31567;54.600;9.842;2022-08-19T17:18:11;13.85;;;12.55;;
45848;SDS011;31567;54.600;9.842;2022-08-19T17:21:51;12.10;;;11.00;;
45848;SDS011;31567;54.600;9.842;2022-08-19T17:25:32;13.38;;;12.07;;
45848;SDS011;31567;54.600;9.842;2022-08-19T17:29:11;13.60;;;12.30;;
45848;SDS011;31567;54.600;9.842;2022-08-19T17:32:52;14.43;;;12.98;;
45848;SDS011;31567;54.600;9.842;2022-08-19T17:36:32;13.48;;;12.15;;
45848;SDS011;31567;54.600;9.842;2022-08-19T17:40:12;13.45;;;11.93;;
45848;SDS011;31567;54.600;9.842;2022-08-19T17:43:52;13.95;;;12.63;;
45848;SDS011;31567;54.600;9.842;2022-08-19T17:47:32;14.15;;;12.55;;
45848;SDS011;31567;54.600;9.842;2022-08-19T17:55:03;14.73;;;13.32;;
45848;SDS011;31567;54.600;9.842;2022-08-19T17:58:43;15.30;;;13.88;;
45848;SDS011;31567;54.600;9.842;2022-08-19T18:02:23;15.25;;;14.02;;
45848;SDS011;31567;54.600;9.842;2022-08-19T18:06:03;16.58;;;14.85;;
45848;SDS011;31567;54.600;9.842;2022-08-19T18:09:43;16.58;;;15.10;;
45848;SDS011;31567;54.600;9.842;2022-08-19T18:13:23;16.58;;;15.07;;
45848;SDS011;31567;54.600;9.842;2022-08-19T18:17:10;19.27;;;17.52;;
45848;SDS011;31567;54.600;9.842;2022-08-19T18:20:51;20.85;;;18.83;;
45848;SDS011;31567;54.600;9.842;2022-08-19T18:24:32;20.25;;;18.30;;
45848;SDS011;31567;54.600;9.842;2022-08-19T18:28:11;18.95;;;17.15;;
45848;SDS011;31567;54.600;9.842;2022-08-19T18:31:51;20.70;;;18.70;;
45848;SDS011;31567;54.600;9.842;2022-08-19T18:35:32;19.63;;;17.92;;
45848;SDS011;31567;54.600;9.842;2022-08-19T18:39:11;21.45;;;19.25;;
45848;SDS011;31567;54.600;9.842;2022-08-19T18:43:09;22.77;;;20.38;;
45848;SDS011;31567;54.600;9.842;2022-08-19T18:46:49;23.08;;;20.85;;
45848;SDS011;31567;54.600;9.842;2022-08-19T18:50:47;22.23;;;19.92;;
45848;SDS011;31567;54.600;9.842;2022-08-19T18:54:27;21.48;;;19.38;;
45848;SDS011;31567;54.600;9.842;2022-08-19T18:58:07;20.85;;;18.85;;
45848;SDS011;31567;54.600;9.842;2022-08-19T19:01:47;37.08;;;21.70;;
45848;SDS011;31567;54.600;9.842;2022-08-19T19:05:28;21.63;;;19.52;;
45848;SDS011;31567;54.600;9.842;2022-08-19T19:09:26;21.48;;;19.52;;
45848;SDS011;31567;54.600;9.842;2022-08-19T19:13:06;23.48;;;21.00;;
45848;SDS011;31567;54.600;9.842;2022-08-19T19:16:46;23.38;;;18.63;;
45848;SDS011;31567;54.600;9.842;2022-08-19T19:20:25;21.85;;;19.75;;
45848;SDS011;31567;54.600;9.842;2022-08-19T19:24:08;23.75;;;21.40;;
45848;SDS011;31567;54.600;9.842;2022-08-19T19:27:49;25.02;;;22.60;;
45848;SDS011;31567;54.600;9.842;2022-08-19T19:31:29;24.30;;;21.75;;
45848;SDS011;31567;54.600;9.842;2022-08-19T19:35:11;24.25;;;21.65;;
45848;SDS011;31567;54.600;9.842;2022-08-19T19:38:51;25.45;;;23.05;;
45848;SDS011;31567;54.600;9.842;2022-08-19T19:42:30;26.50;;;23.77;;
45848;SDS011;31567;54.600;9.842;2022-08-19T19:46:10;23.75;;;21.58;;
45848;SDS011;31567;54.600;9.842;2022-08-19T19:49:51;21.77;;;19.65;;
45848;SDS011;31567;54.600;9.842;2022-08-19T19:53:33;20.95;;;18.90;;
45848;SDS011;31567;54.600;9.842;2022-08-19T19:57:13;17.27;;;15.50;;
45848;SDS011;31567;54.600;9.842;2022-08-19T20:00:53;14.88;;;13.63;;
45848;SDS011;31567;54.600;9.842;2022-08-19T20:04:33;16.65;;;15.20;;
45848;SDS011;31567;54.600;9.842;2022-08-19T20:08:14;15.27;;;13.68;;
45848;SDS011;31567;54.600;9.842;2022-08-19T20:12:13;15.95;;;14.35;;
45848;SDS011;31567;54.600;9.842;2022-08-19T20:15:52;15.27;;;13.77;;
45848;SDS011;31567;54.600;9.842;2022-08-19T20:19:32;15.07;;;13.77;;
45848;SDS011;31567;54.600;9.842;2022-08-19T20:23:16;12.32;;;11.02;;
45848;SDS011;31567;54.600;9.842;2022-08-19T20:26:57;8.52;;;7.75;;
45848;SDS011;31567;54.600;9.842;2022-08-19T20:30:38;8.10;;;7.38;;
45848;SDS011;31567;54.600;9.842;2022-08-19T20:34:19;8.57;;;7.80;;
45848;SDS011;31567;54.600;9.842;2022-08-19T20:37:59;9.93;;;7.47;;
45848;SDS011;31567;54.600;9.842;2022-08-19T20:41:39;6.97;;;6.10;;
45848;SDS011;31567;54.600;9.842;2022-08-19T20:45:22;6.65;;;5.80;;
45848;SDS011;31567;54.600;9.842;2022-08-19T20:49:02;5.93;;;5.00;;
45848;SDS011;31567;54.600;9.842;2022-08-19T20:52:42;5.93;;;5.43;;
45848;SDS011;31567;54.600;9.842;2022-08-19T20:56:22;5.60;;;5.20;;
45848;SDS011;31567;54.600;9.842;2022-08-19T21:00:03;6.72;;;6.15;;
45848;SDS011;31567;54.600;9.842;2022-08-19T21:03:45;6.60;;;5.85;;
45848;SDS011;31567;54.600;9.842;2022-08-19T21:07:25;7.43;;;6.75;;
45848;SDS011;31567;54.600;9.842;2022-08-19T21:11:05;6.35;;;5.85;;
45848;SDS011;31567;54.600;9.842;2022-08-19T21:14:47;6.63;;;6.13;;
45848;SDS011;31567;54.600;9.842;2022-08-19T21:18:27;8.23;;;6.10;;
45848;SDS011;31567;54.600;9.842;2022-08-19T21:22:07;6.82;;;6.15;;
45848;SDS011;31567;54.600;9.842;2022-08-19T21:25:47;6.28;;;5.68;;
45848;SDS011;31567;54.600;9.842;2022-08-19T21:29:29;6.45;;;5.85;;
45848;SDS011;31567;54.600;9.842;2022-08-19T21:33:10;7.97;;;6.90;;
45848;SDS011;31567;54.600;9.842;2022-08-19T21:36:50;6.07;;;5.57;;
45848;SDS011;31567;54.600;9.842;2022-08-19T21:40:29;6.60;;;6.00;;
45848;SDS011;31567;54.600;9.842;2022-08-19T21:44:09;6.55;;;6.13;;
45848;SDS011;31567;54.600;9.842;2022-08-19T21:47:49;7.95;;;6.68;;